Time;durP1;ratioP1;P1;durP2;ratioP2;P2;SDS_P1;SDS_P2;PMS_P1;PMS_P2;Temp;Humidity;BMP_temperature;BMP_pressure;BME280_temperature;BME280_humidity;BME280_pressure;Samples;Min_cycle;Max_cycle;Signal;HPM_P1;HPM_P2
2021/09/25 00:02:21;;;;;;;7.20;4.40;;;14.20;99.90;;;;;;4897828;29;20083;-78
2021/09/25 00:04:48;;;;;;;7.00;4.18;;;14.20;99.90;;;;;;4893451;29;20131;-78
2021/09/25 00:07:15;;;;;;;8.35;4.50;;;14.20;99.90;;;;;;4897838;29;20474;-79
2021/09/25 00:09:43;;;;;;;7.38;4.50;;;14.20;99.90;;;;;;4897542;29;20087;-77
2021/09/25 00:12:12;;;;;;;7.40;4.85;;;14.20;99.90;;;;;;4897788;29;20096;-77
2021/09/25 00:14:40;;;;;;;6.13;4.07;;;14.20;99.90;;;;;;4897544;29;20135;-78
2021/09/25 00:17:09;;;;;;;7.15;4.63;;;14.20;99.90;;;;;;4897639;29;20491;-78
2021/09/25 00:19:39;;;;;;;6.28;4.63;;;14.20;99.90;;;;;;4901148;29;20498;-77
2021/09/25 00:22:06;;;;;;;7.30;4.60;;;14.20;99.70;;;;;;4901289;29;20148;-77
2021/09/25 00:24:34;;;;;;;8.05;4.80;;;14.10;99.20;;;;;;4894624;29;20143;-78
2021/09/25 00:27:01;;;;;;;7.22;4.88;;;14.10;99.10;;;;;;4901312;29;20139;-78
2021/09/25 00:29:29;;;;;;;8.20;4.30;;;14.00;99.10;;;;;;4900274;29;20402;-79
2021/09/25 00:31:56;;;;;;;6.72;4.50;;;13.90;99.40;;;;;;4901459;29;20139;-78
2021/09/25 00:34:23;;;;;;;7.60;4.85;;;13.90;99.50;;;;;;4901471;29;20187;-79
2021/09/25 00:36:51;;;;;;;7.30;4.65;;;13.90;99.60;;;;;;4901397;29;20151;-78
2021/09/25 00:39:18;;;;;;;6.70;4.60;;;13.90;99.60;;;;;;4900688;29;20087;-78
2021/09/25 00:41:45;;;;;;;7.30;4.68;;;13.80;99.50;;;;;;4895296;29;20572;-79
2021/09/25 00:44:12;;;;;;;7.55;4.30;;;13.80;99.40;;;;;;4890785;29;20101;-79
2021/09/25 00:46:40;;;;;;;7.18;4.80;;;13.80;99.30;;;;;;4900837;29;20045;-79
2021/09/25 00:49:08;;;;;;;7.43;4.35;;;13.80;99.50;;;;;;4900849;29;20048;-79
2021/09/25 00:51:35;;;;;;;6.00;4.47;;;13.70;99.50;;;;;;4901144;29;20132;-79
2021/09/25 00:54:02;;;;;;;8.27;4.82;;;13.70;99.50;;;;;;4900964;29;20049;-78
2021/09/25 00:56:29;;;;;;;7.90;5.00;;;13.80;99.90;;;;;;4900121;29;20119;-79
2021/09/25 00:58:57;;;;;;;9.82;5.55;;;13.80;99.90;;;;;;4900841;29;20131;-78
2021/09/25 01:01:24;;;;;;;8.38;4.90;;;13.80;99.90;;;;;;4900827;29;20140;-77
2021/09/25 01:03:52;;;;;;;6.93;4.85;;;13.50;99.50;;;;;;4900542;29;20121;-78
2021/09/25 01:06:19;;;;;;;8.80;5.22;;;13.60;99.80;;;;;;4899971;29;20140;-78
2021/09/25 01:08:47;;;;;;;7.28;4.90;;;13.50;99.60;;;;;;4900705;29;20147;-77
2021/09/25 01:11:14;;;;;;;7.90;4.90;;;13.50;99.60;;;;;;4899956;29;20132;-78
2021/09/25 01:13:41;;;;;;;7.38;4.50;;;13.50;99.80;;;;;;4900524;29;20072;-79
2021/09/25 01:16:08;;;;;;;6.82;4.82;;;13.40;99.60;;;;;;4900192;29;20136;-79
2021/09/25 01:18:36;;;;;;;25.17;14.95;;;13.40;99.50;;;;;;4900284;29;20095;-81
2021/09/25 01:21:07;;;;;;;24.05;14.32;;;13.30;99.60;;;;;;4900059;29;20072;-79
2021/09/25 01:23:34;;;;;;;27.58;16.77;;;13.30;99.70;;;;;;4893408;29;20471;-79
2021/09/25 01:26:02;;;;;;;13.63;8.45;;;13.30;99.90;;;;;;4900712;29;20127;-79
2021/09/25 01:28:30;;;;;;;10.20;5.82;;;13.20;99.90;;;;;;4899903;29;20041;-79
2021/09/25 01:30:58;;;;;;;7.15;4.93;;;13.20;99.90;;;;;;4899234;29;20129;-79
2021/09/25 01:33:27;;;;;;;7.97;5.15;;;13.20;99.80;;;;;;4900135;29;20083;-78
2021/09/25 01:35:54;;;;;;;7.32;4.80;;;13.20;99.60;;;;;;4900688;29;20468;-79
2021/09/25 01:38:23;;;;;;;6.93;4.35;;;13.10;99.50;;;;;;4899401;29;20060;-79
2021/09/25 01:40:50;;;;;;;6.93;4.72;;;13.00;99.40;;;;;;4900474;29;20467;-79
2021/09/25 01:43:18;;;;;;;9.18;4.38;;;12.90;99.50;;;;;;4900203;29;20136;-79
2021/09/25 01:45:46;;;;;;;7.05;4.90;;;12.80;99.60;;;;;;4899818;29;20144;-77
2021/09/25 01:48:14;;;;;;;6.63;4.57;;;12.70;99.90;;;;;;4898696;29;20406;-78
2021/09/25 01:50:42;;;;;;;7.10;4.57;;;12.70;99.90;;;;;;4899397;29;20143;-77
2021/09/25 01:53:10;;;;;;;8.02;4.80;;;12.60;99.90;;;;;;4899086;29;20131;-77
2021/09/25 01:55:39;;;;;;;7.00;4.50;;;12.60;99.90;;;;;;4899319;29;20558;-80
2021/09/25 01:58:06;;;;;;;7.45;4.40;;;12.50;99.90;;;;;;4899142;29;20459;-79
2021/09/25 02:00:34;;;;;;;8.02;4.90;;;12.50;99.90;;;;;;4899755;29;20059;-80
2021/09/25 02:03:02;;;;;;;8.57;4.80;;;12.50;99.90;;;;;;4899176;29;20048;-79
2021/09/25 02:05:29;;;;;;;7.43;4.65;;;12.50;99.90;;;;;;4899598;29;20143;-78
2021/09/25 02:07:56;;;;;;;7.75;4.68;;;12.50;99.90;;;;;;4899417;29;20238;-78
2021/09/25 02:10:25;;;;;;;6.40;4.13;;;12.50;99.90;;;;;;4899057;29;20060;-78
2021/09/25 02:12:54;;;;;;;7.55;4.38;;;12.60;99.90;;;;;;4899101;29;20139;-78
2021/09/25 02:15:21;;;;;;;7.07;4.15;;;12.60;99.90;;;;;;4898878;29;20052;-80
2021/09/25 02:17:48;;;;;;;7.75;4.30;;;12.70;99.90;;;;;;4898644;29;20139;-79
2021/09/25 02:20:15;;;;;;;5.30;3.47;;;12.60;99.90;;;;;;4898734;29;20144;-79
2021/09/25 02:22:43;;;;;;;6.55;4.38;;;12.70;99.90;;;;;;4899134;29;20132;-81
2021/09/25 02:25:11;;;;;;;6.95;4.20;;;12.70;99.90;;;;;;4898987;29;20099;-78
2021/09/25 02:27:40;;;;;;;5.95;3.97;;;12.80;99.90;;;;;;4898902;29;20151;-78
2021/09/25 02:30:13;;;;;;;7.22;4.57;;;12.80;99.90;;;;;;4898989;29;20266;-79
2021/09/25 02:32:40;;;;;;;7.47;4.38;;;12.80;99.90;;;;;;4899195;29;20132;-78
2021/09/25 02:35:10;;;;;;;6.88;4.30;;;12.90;99.90;;;;;;4898925;29;20644;-78
2021/09/25 02:37:37;;;;;;;7.13;4.10;;;12.80;99.90;;;;;;4898560;29;20040;-79
2021/09/25 02:40:06;;;;;;;6.50;3.97;;;12.80;99.90;;;;;;4898797;29;20142;-79
2021/09/25 02:42:33;;;;;;;6.45;4.25;;;12.80;99.90;;;;;;4891568;29;20052;-79
2021/09/25 02:45:00;;;;;;;6.40;4.25;;;12.90;99.90;;;;;;4898657;29;20147;-78
2021/09/25 02:47:29;;;;;;;7.00;4.40;;;12.90;99.90;;;;;;4898143;29;20143;-80
2021/09/25 02:49:56;;;;;;;6.32;4.25;;;12.80;99.90;;;;;;4898400;29;20470;-79
2021/09/25 02:52:23;;;;;;;7.15;4.32;;;12.80;99.90;;;;;;4897961;29;20567;-78
2021/09/25 02:54:50;;;;;;;7.25;4.50;;;12.80;99.90;;;;;;4898146;29;20136;-79
2021/09/25 02:57:17;;;;;;;7.72;4.40;;;12.80;99.90;;;;;;4898299;29;20143;-79
2021/09/25 02:59:44;;;;;;;6.72;4.43;;;12.80;99.90;;;;;;4898181;29;20152;-79
2021/09/25 03:02:11;;;;;;;6.70;4.75;;;12.70;99.90;;;;;;4897928;29;20056;-78
2021/09/25 03:04:40;;;;;;;6.68;4.47;;;12.70;99.90;;;;;;4895835;29;20052;-80
2021/09/25 03:07:08;;;;;;;6.10;4.30;;;12.60;99.90;;;;;;4896352;29;20135;-79
2021/09/25 03:09:35;;;;;;;6.55;4.53;;;12.50;99.90;;;;;;4888621;29;20100;-79
2021/09/25 03:12:02;;;;;;;7.28;4.25;;;12.50;99.90;;;;;;4896301;29;20140;-79
2021/09/25 03:14:29;;;;;;;6.00;4.30;;;12.50;99.90;;;;;;4895527;29;20060;-79
2021/09/25 03:16:56;;;;;;;6.82;4.55;;;12.40;99.90;;;;;;4896328;29;20064;-80
2021/09/25 03:19:23;;;;;;;6.97;4.63;;;12.40;99.90;;;;;;4895500;29;20139;-80
2021/09/25 03:21:52;;;;;;;7.38;4.72;;;12.30;99.90;;;;;;4895328;29;20088;-78
2021/09/25 03:24:19;;;;;;;8.23;5.00;;;12.20;99.90;;;;;;4895545;29;20131;-78
2021/09/25 03:26:46;;;;;;;7.25;4.95;;;12.10;99.90;;;;;;4895166;29;20135;-80
2021/09/25 03:29:13;;;;;;;7.43;4.95;;;12.00;99.90;;;;;;4895353;29;20148;-79
2021/09/25 03:31:40;;;;;;;7.00;4.45;;;11.90;99.90;;;;;;4895595;29;20139;-79
2021/09/25 03:34:07;;;;;;;6.25;4.18;;;11.90;99.90;;;;;;4896067;29;20131;-80
2021/09/25 03:36:34;;;;;;;8.10;4.45;;;11.80;99.90;;;;;;4896021;29;20135;-78
2021/09/25 03:39:03;;;;;;;6.78;4.07;;;11.80;99.90;;;;;;4895788;29;20139;-78
2021/09/25 03:41:30;;;;;;;6.93;4.63;;;11.80;99.90;;;;;;4894921;29;20054;-79
2021/09/25 03:43:58;;;;;;;7.63;4.50;;;11.90;99.90;;;;;;4895421;29;20054;-76
2021/09/25 03:46:25;;;;;;;7.43;4.55;;;11.90;99.90;;;;;;4895408;29;20099;-80
2021/09/25 03:48:52;;;;;;;6.22;4.25;;;11.90;99.90;;;;;;4896121;29;20140;-79
2021/09/25 03:51:19;;;;;;;6.82;4.70;;;11.80;99.90;;;;;;4895386;29;20148;-76
2021/09/25 03:53:46;;;;;;;7.20;4.82;;;11.80;99.90;;;;;;4894627;29;20148;-77
2021/09/25 03:56:15;;;;;;;7.45;4.68;;;11.80;99.90;;;;;;4894893;29;20121;-77
2021/09/25 03:58:43;;;;;;;7.63;4.50;;;11.80;99.90;;;;;;4889821;29;20600;-79
2021/09/25 04:01:12;;;;;;;7.55;4.40;;;11.80;99.90;;;;;;4885838;29;20414;-79
2021/09/25 04:03:40;;;;;;;7.28;4.57;;;11.80;99.90;;;;;;4890308;29;20048;-79
2021/09/25 04:06:07;;;;;;;7.93;5.00;;;11.80;99.90;;;;;;4897412;29;20136;-79
2021/09/25 04:08:34;;;;;;;6.45;4.57;;;11.80;99.90;;;;;;4890606;29;20465;-79
2021/09/25 04:11:01;;;;;;;6.93;4.10;;;11.80;99.90;;;;;;4897488;29;20060;-80
2021/09/25 04:13:30;;;;;;;7.47;4.72;;;11.80;99.90;;;;;;4897668;29;20132;-78
2021/09/25 04:15:57;;;;;;;8.52;4.40;;;11.80;99.90;;;;;;4897598;29;20582;-80
2021/09/25 04:18:24;;;;;;;7.38;4.15;;;11.80;99.90;;;;;;4897141;29;20164;-79
2021/09/25 04:20:51;;;;;;;6.82;4.28;;;11.80;99.90;;;;;;4897611;29;20590;-78
2021/09/25 04:23:18;;;;;;;7.75;4.80;;;11.80;99.90;;;;;;4897202;29;20139;-81
2021/09/25 04:25:45;;;;;;;7.70;4.55;;;11.80;99.90;;;;;;4897606;29;20206;-79
2021/09/25 04:28:12;;;;;;;5.97;3.95;;;11.80;99.90;;;;;;4897600;29;20139;-79
2021/09/25 04:30:41;;;;;;;6.32;4.03;;;11.80;99.90;;;;;;4897254;29;20139;-80
2021/09/25 04:33:11;;;;;;;6.57;4.43;;;11.70;99.90;;;;;;4897046;29;20487;-79
2021/09/25 04:35:39;;;;;;;8.05;4.57;;;11.70;99.90;;;;;;4897453;29;20084;-77
2021/09/25 04:38:07;;;;;;;7.88;4.25;;;11.60;99.90;;;;;;4897076;29;20182;-78
2021/09/25 04:40:34;;;;;;;7.05;4.47;;;11.60;99.90;;;;;;4890324;29;20127;-77
2021/09/25 04:43:03;;;;;;;6.82;4.38;;;11.50;99.90;;;;;;4896974;29;20456;-78
2021/09/25 04:45:31;;;;;;;7.32;4.28;;;11.50;99.90;;;;;;4896770;29;20124;-78
2021/09/25 04:47:59;;;;;;;6.63;4.15;;;11.50;99.90;;;;;;4897308;29;20143;-78
2021/09/25 04:50:29;;;;;;;7.55;5.00;;;11.50;99.90;;;;;;4896893;29;21325;-78
2021/09/25 04:53:06;;;;;;;7.32;4.65;;;11.50;99.90;;;;;;4897387;29;20052;-80
2021/09/25 04:55:33;;;;;;;8.82;5.00;;;11.40;99.90;;;;;;4890182;29;20048;-79
2021/09/25 04:58:00;;;;;;;7.00;4.35;;;11.50;99.90;;;;;;4897548;29;20140;-78
2021/09/25 05:00:27;;;;;;;8.43;4.65;;;11.40;99.90;;;;;;4897356;29;20139;-79
2021/09/25 05:02:54;;;;;;;7.38;4.25;;;11.40;99.90;;;;;;4897063;29;20140;-79
2021/09/25 05:05:23;;;;;;;8.43;4.80;;;11.40;99.90;;;;;;4898105;29;20476;-80
2021/09/25 05:07:50;;;;;;;6.57;4.43;;;11.30;99.90;;;;;;4900132;29;20135;-79
2021/09/25 05:10:17;;;;;;;6.55;4.28;;;11.30;99.90;;;;;;4899894;29;20087;-79
2021/09/25 05:12:45;;;;;;;7.35;4.30;;;11.40;99.90;;;;;;4899967;29;20049;-79
2021/09/25 05:15:13;;;;;;;8.35;4.88;;;11.40;99.90;;;;;;4899892;29;20153;-78
2021/09/25 05:17:40;;;;;;;8.20;4.63;;;11.40;99.90;;;;;;4900091;29;20135;-80
2021/09/25 05:20:10;;;;;;;7.07;4.57;;;11.40;99.90;;;;;;4899806;29;20140;-77
2021/09/25 05:22:39;;;;;;;7.05;4.70;;;11.50;99.90;;;;;;4895695;29;20574;-78
2021/09/25 05:25:07;;;;;;;7.57;4.88;;;11.50;99.90;;;;;;4891857;29;20136;-79
2021/09/25 05:27:34;;;;;;;6.20;4.28;;;11.40;99.90;;;;;;4888547;29;20128;-79
2021/09/25 05:30:03;;;;;;;7.63;4.85;;;11.50;99.90;;;;;;4889540;29;20144;-79
2021/09/25 05:32:30;;;;;;;7.05;4.35;;;11.40;99.90;;;;;;4883705;29;20440;-76
2021/09/25 05:34:57;;;;;;;7.25;4.45;;;11.40;99.90;;;;;;4881966;29;20136;-79
2021/09/25 05:37:24;;;;;;;7.95;4.43;;;11.40;99.90;;;;;;4887208;29;20056;-78
2021/09/25 05:39:55;;;;;;;7.63;4.25;;;11.40;99.90;;;;;;4899906;29;20140;-80
2021/09/25 05:42:23;;;;;;;7.03;4.25;;;11.40;99.90;;;;;;4899477;29;20502;-79
2021/09/25 05:44:50;;;;;;;6.85;4.07;;;11.30;99.90;;;;;;4900058;29;20059;-76
2021/09/25 05:47:18;;;;;;;7.38;4.35;;;11.30;99.90;;;;;;4895469;29;20155;-79
2021/09/25 05:49:46;;;;;;;7.32;4.57;;;11.30;99.90;;;;;;4890258;29;20112;-81
2021/09/25 05:52:13;;;;;;;6.70;4.63;;;11.30;99.90;;;;;;4893655;29;20415;-79
2021/09/25 05:54:40;;;;;;;6.80;4.10;;;11.20;99.90;;;;;;4885495;29;20095;-80
2021/09/25 05:57:09;;;;;;;7.95;4.40;;;11.20;99.90;;;;;;4885323;29;20049;-80
2021/09/25 05:59:38;;;;;;;7.90;4.85;;;11.20;99.90;;;;;;4889117;29;20132;-79
2021/09/25 06:02:06;;;;;;;8.05;4.82;;;11.20;99.90;;;;;;4882075;29;20132;-79
2021/09/25 06:04:33;;;;;;;7.55;4.90;;;11.20;99.90;;;;;;4883427;29;20124;-78
2021/09/25 06:07:01;;;;;;;7.53;4.78;;;11.20;99.90;;;;;;4882223;29;20057;-79
2021/09/25 06:09:28;;;;;;;7.63;4.63;;;11.20;99.90;;;;;;4884689;29;20485;-79
2021/09/25 06:11:55;;;;;;;8.57;5.38;;;11.20;99.90;;;;;;4889291;29;20140;-80
2021/09/25 06:14:24;;;;;;;8.65;4.85;;;11.10;99.90;;;;;;4883180;29;20132;-78
2021/09/25 06:16:51;;;;;;;8.48;5.10;;;11.20;99.90;;;;;;4881397;29;20095;-81
2021/09/25 06:19:19;;;;;;;8.32;4.65;;;11.20;99.90;;;;;;4889054;29;20131;-79
2021/09/25 06:21:46;;;;;;;7.35;4.63;;;11.20;99.90;;;;;;4881851;29;20567;-79
2021/09/25 06:24:13;;;;;;;8.25;4.88;;;11.20;99.90;;;;;;4882884;29;20133;-81
2021/09/25 06:26:40;;;;;;;7.75;5.07;;;11.30;99.90;;;;;;4881331;29;20131;-79
2021/09/25 06:29:08;;;;;;;7.95;5.05;;;11.40;99.90;;;;;;4888248;29;20098;-81
2021/09/25 06:31:36;;;;;;;8.50;5.18;;;11.40;99.90;;;;;;4881052;29;20136;-80
2021/09/25 06:34:04;;;;;;;7.82;4.90;;;11.50;99.90;;;;;;4881944;29;20139;-79
2021/09/25 06:36:32;;;;;;;7.22;4.70;;;11.50;99.90;;;;;;4891084;29;20152;-79
2021/09/25 06:39:00;;;;;;;10.25;5.35;;;11.60;99.90;;;;;;4892784;29;20049;-76
2021/09/25 06:41:27;;;;;;;9.00;5.65;;;11.60;99.90;;;;;;4898466;29;20507;-78
2021/09/25 06:43:55;;;;;;;8.98;5.28;;;11.60;99.90;;;;;;4898357;29;20140;-78
2021/09/25 06:46:22;;;;;;;8.00;5.45;;;11.60;99.90;;;;;;4898757;29;20559;-80
2021/09/25 06:48:50;;;;;;;7.30;4.93;;;11.60;99.90;;;;;;4898842;29;20140;-78
2021/09/25 06:51:18;;;;;;;7.30;5.05;;;11.60;99.90;;;;;;4898410;29;20080;-78
2021/09/25 06:53:45;;;;;;;7.53;4.80;;;11.60;99.90;;;;;;4897045;29;20053;-79
2021/09/25 06:56:13;;;;;;;7.70;5.10;;;11.70;99.90;;;;;;4898376;29;20124;-77
2021/09/25 06:58:40;;;;;;;7.68;5.28;;;11.80;99.90;;;;;;4898147;29;20131;-79
2021/09/25 07:01:07;;;;;;;8.40;5.25;;;11.80;99.90;;;;;;4898678;29;20143;-79
2021/09/25 07:03:34;;;;;;;8.15;5.00;;;11.90;99.90;;;;;;4889869;29;20059;-79
2021/09/25 07:06:02;;;;;;;11.57;5.80;;;12.00;99.90;;;;;;4893760;29;20131;-78
2021/09/25 07:08:29;;;;;;;8.75;5.40;;;12.10;99.90;;;;;;4891381;29;20125;-78
2021/09/25 07:10:57;;;;;;;7.65;5.05;;;12.10;99.90;;;;;;4881536;29;20136;-79
2021/09/25 07:13:24;;;;;;;10.20;5.35;;;12.20;99.90;;;;;;4888785;29;20072;-79
2021/09/25 07:15:51;;;;;;;7.88;5.18;;;12.20;99.90;;;;;;4880173;29;20057;-79
2021/09/25 07:18:19;;;;;;;8.75;5.40;;;12.30;99.90;;;;;;4880700;29;20148;-79
2021/09/25 07:20:46;;;;;;;7.25;4.93;;;12.40;99.90;;;;;;4886958;29;20045;-80
2021/09/25 07:23:15;;;;;;;7.65;4.88;;;12.50;99.90;;;;;;4885950;29;20084;-77
2021/09/25 07:25:42;;;;;;;10.23;5.47;;;12.50;99.90;;;;;;4895441;29;20147;-79
2021/09/25 07:28:11;;;;;;;9.20;5.50;;;12.60;99.90;;;;;;4894846;29;20131;-80
2021/09/25 07:30:41;;;;;;;7.88;5.30;;;12.70;99.90;;;;;;4893259;29;20460;-79
2021/09/25 07:33:09;;;;;;;7.90;5.05;;;12.70;99.90;;;;;;4898639;29;20045;-78
2021/09/25 07:35:37;;;;;;;8.63;5.05;;;12.80;99.90;;;;;;4898660;29;20054;-79
2021/09/25 07:38:05;;;;;;;8.55;4.75;;;12.90;99.90;;;;;;4896829;29;20098;-79
2021/09/25 07:40:35;;;;;;;7.72;4.60;;;12.90;99.90;;;;;;4892074;29;20055;-79
2021/09/25 07:43:04;;;;;;;7.63;3.95;;;13.00;99.90;;;;;;4896736;29;20569;-80
2021/09/25 07:45:31;;;;;;;6.93;4.20;;;13.10;99.90;;;;;;4900158;29;20106;-77
2021/09/25 07:47:59;;;;;;;6.93;4.40;;;13.20;99.90;;;;;;4898879;29;20084;-80
2021/09/25 07:50:26;;;;;;;6.78;4.30;;;13.30;99.90;;;;;;4897810;29;20432;-80
2021/09/25 07:52:56;;;;;;;6.47;4.25;;;13.40;99.90;;;;;;4897427;29;20135;-79
2021/09/25 07:55:25;;;;;;;8.07;4.30;;;13.50;99.90;;;;;;4897580;29;20068;-80
2021/09/25 07:57:54;;;;;;;6.20;3.95;;;13.60;99.90;;;;;;4898028;29;20128;-81
2021/09/25 08:00:22;;;;;;;7.07;4.40;;;13.70;99.90;;;;;;4895442;29;20144;-79
2021/09/25 08:02:50;;;;;;;6.80;4.53;;;13.80;99.90;;;;;;4897531;29;20181;-79
2021/09/25 08:05:17;;;;;;;7.28;4.15;;;13.80;99.90;;;;;;4895624;29;20136;-79
2021/09/25 08:07:45;;;;;;;6.47;3.78;;;13.90;99.90;;;;;;4897064;29;20136;-79
2021/09/25 08:10:15;;;;;;;6.78;4.47;;;14.00;99.90;;;;;;4897040;29;20136;-79
2021/09/25 08:12:42;;;;;;;6.65;4.25;;;14.00;99.90;;;;;;4896459;29;20131;-78
2021/09/25 08:15:14;;;;;;;7.35;4.40;;;14.10;99.90;;;;;;4896787;29;20131;-80
2021/09/25 08:17:42;;;;;;;5.63;3.83;;;14.20;99.90;;;;;;4896465;29;20061;-79
2021/09/25 08:20:12;;;;;;;6.68;3.83;;;14.30;99.90;;;;;;4896562;29;20054;-79
2021/09/25 08:22:39;;;;;;;5.03;3.45;;;14.30;99.90;;;;;;4895342;29;20056;-81
2021/09/25 08:25:09;;;;;;;6.10;3.80;;;14.40;99.90;;;;;;4895633;29;20136;-80
2021/09/25 08:27:36;;;;;;;6.60;3.92;;;14.40;99.90;;;;;;4895820;29;20109;-78
2021/09/25 08:30:05;;;;;;;6.28;4.00;;;14.50;99.90;;;;;;4894648;29;20191;-79
2021/09/25 08:32:33;;;;;;;7.75;4.40;;;14.60;99.90;;;;;;4895421;29;20497;-79
2021/09/25 08:35:00;;;;;;;6.85;3.92;;;14.70;99.90;;;;;;4895679;29;20062;-79
2021/09/25 08:37:27;;;;;;;5.57;3.67;;;14.80;99.90;;;;;;4895842;29;20052;-81
2021/09/25 08:39:54;;;;;;;5.65;3.88;;;14.90;99.90;;;;;;4896754;29;20044;-79
2021/09/25 08:42:22;;;;;;;5.88;3.65;;;14.90;99.90;;;;;;4901067;29;20071;-79
2021/09/25 08:44:53;;;;;;;5.22;3.50;;;15.00;99.90;;;;;;4900740;29;20133;-79
2021/09/25 08:47:22;;;;;;;5.78;3.40;;;15.10;99.90;;;;;;4900092;29;20059;-80
2021/09/25 08:49:51;;;;;;;6.72;3.63;;;15.20;99.90;;;;;;4900613;29;20060;-80
2021/09/25 08:52:19;;;;;;;6.43;3.40;;;15.30;99.90;;;;;;4898684;29;20060;-80
2021/09/25 08:54:46;;;;;;;5.75;3.83;;;15.40;99.90;;;;;;4900387;29;20145;-80
2021/09/25 08:57:14;;;;;;;8.15;3.58;;;15.40;99.90;;;;;;4900219;29;20140;-80
2021/09/25 08:59:41;;;;;;;5.82;3.85;;;15.50;99.90;;;;;;4900761;29;20590;-81
2021/09/25 09:02:13;;;;;;;5.63;3.58;;;15.60;99.90;;;;;;4899978;29;20131;-81
2021/09/25 09:04:46;;;;;;;5.43;3.22;;;15.70;99.90;;;;;;4900250;29;20087;-80
2021/09/25 09:07:30;;;;;;;5.03;3.30;;;15.70;99.90;;;;;;4897056;29;20128;-81
2021/09/25 09:09:59;;;;;;;4.93;3.20;;;15.80;99.90;;;;;;4892276;29;20092;-82
2021/09/25 09:12:28;;;;;;;6.57;4.03;;;16.00;99.90;;;;;;4900072;29;20063;-83
2021/09/25 09:14:57;;;;;;;7.50;3.78;;;16.00;99.90;;;;;;4901046;29;20139;-82
2021/09/25 09:17:27;;;;;;;6.07;3.70;;;16.10;99.90;;;;;;4899670;29;20533;-82
2021/09/25 09:19:55;;;;;;;5.20;3.28;;;16.20;99.90;;;;;;4901024;29;20059;-80
2021/09/25 09:22:25;;;;;;;4.80;3.38;;;16.30;99.90;;;;;;4899579;29;20414;-80
2021/09/25 09:24:55;;;;;;;6.15;3.50;;;16.30;99.90;;;;;;4899785;29;20143;-79
2021/09/25 09:27:25;;;;;;;5.57;3.20;;;16.40;99.90;;;;;;4899130;29;20081;-80
2021/09/25 09:30:08;;;;;;;5.78;3.42;;;16.50;99.90;;;;;;4899144;29;20068;-79
2021/09/25 09:32:39;;;;;;;6.85;3.33;;;16.60;99.90;;;;;;4899194;29;20080;-79
2021/09/25 09:35:11;;;;;;;5.75;3.22;;;16.70;99.90;;;;;;4900346;29;20135;-79
2021/09/25 09:37:40;;;;;;;7.20;3.63;;;16.70;99.90;;;;;;4899905;29;20128;-79
2021/09/25 09:40:10;;;;;;;6.15;3.70;;;16.80;99.90;;;;;;4930256;29;20152;-80
2021/09/25 09:42:44;;;;;;;5.78;3.58;;;16.80;99.90;;;;;;4899841;29;20131;-79
2021/09/25 09:45:12;;;;;;;5.70;3.45;;;17.00;99.90;;;;;;4900109;29;20068;-83
2021/09/25 09:47:45;;;;;;;5.38;3.15;;;17.00;99.80;;;;;;4900034;29;20135;-78
2021/09/25 09:50:15;;;;;;;4.70;2.90;;;17.10;99.70;;;;;;4899375;29;20060;-79
2021/09/25 09:52:44;;;;;;;5.65;3.00;;;17.20;99.50;;;;;;4899372;29;20091;-78
2021/09/25 09:55:22;;;;;;;4.90;3.15;;;17.30;99.30;;;;;;4899890;29;20132;-78
2021/09/25 09:58:01;;;;;;;4.82;3.10;;;17.30;99.10;;;;;;4900169;29;20052;-78
2021/09/25 10:00:28;;;;;;;4.60;3.10;;;17.40;99.00;;;;;;4904979;29;20048;-78
2021/09/25 10:02:56;;;;;;;4.50;3.10;;;17.50;98.80;;;;;;4918955;29;20080;-78
2021/09/25 10:05:23;;;;;;;5.53;3.03;;;17.60;98.70;;;;;;4913319;29;20578;-78
2021/09/25 10:07:51;;;;;;;5.13;3.08;;;17.60;98.60;;;;;;4899170;29;20054;-77
2021/09/25 10:10:18;;;;;;;4.75;2.90;;;17.70;98.60;;;;;;4898653;29;20131;-77
2021/09/25 10:12:47;;;;;;;5.00;2.95;;;17.70;98.50;;;;;;4899118;29;20136;-80
2021/09/25 10:15:15;;;;;;;5.32;3.13;;;17.80;98.50;;;;;;4898662;29;20579;-79
2021/09/25 10:17:43;;;;;;;5.43;3.58;;;17.90;98.50;;;;;;4897934;29;20060;-79
2021/09/25 10:20:12;;;;;;;6.18;4.15;;;17.90;98.50;;;;;;4898438;29;20139;-79
2021/09/25 10:22:40;;;;;;;6.28;3.70;;;18.00;98.40;;;;;;4892512;29;20443;-81
2021/09/25 10:25:15;;;;;;;5.80;3.70;;;18.00;98.30;;;;;;4898759;29;20052;-78
2021/09/25 10:27:45;;;;;;;5.97;3.78;;;18.10;98.40;;;;;;4897390;29;20069;-83
2021/09/25 10:30:15;;;;;;;5.38;3.42;;;18.20;98.30;;;;;;4898844;29;20541;-81
2021/09/25 10:32:47;;;;;;;5.80;2.85;;;18.30;98.40;;;;;;4898634;29;20535;-80
2021/09/25 10:35:16;;;;;;;5.03;3.10;;;18.40;98.50;;;;;;4893598;29;20479;-83
2021/09/25 10:37:46;;;;;;;5.13;3.22;;;18.60;98.50;;;;;;4887442;29;20057;-82
2021/09/25 10:40:17;;;;;;;6.43;3.30;;;18.70;98.20;;;;;;4898097;29;20143;-80
2021/09/25 10:42:47;;;;;;;4.65;3.00;;;18.80;98.10;;;;;;4898827;29;20087;-85
2021/09/25 10:45:25;;;;;;;4.93;3.35;;;18.80;98.10;;;;;;4898446;29;20076;-82
2021/09/25 10:48:10;;;;;;;5.05;3.30;;;18.90;98.10;;;;;;4895207;29;20058;-78
2021/09/25 10:50:40;;;;;;;4.78;3.00;;;19.00;98.00;;;;;;4891358;29;20120;-79
2021/09/25 10:53:11;;;;;;;5.85;3.40;;;19.00;97.80;;;;;;4898009;29;20052;-78
2021/09/25 10:55:42;;;;;;;5.20;3.35;;;19.10;97.70;;;;;;4897998;29;20136;-79
2021/09/25 10:58:31;;;;;;;4.90;3.13;;;19.20;98.00;;;;;;4898121;29;20140;-78
2021/09/25 11:01:05;;;;;;;5.28;3.30;;;19.30;97.90;;;;;;4898333;29;20135;-80
2021/09/25 11:04:08;;;;;;;5.72;3.20;;;19.30;97.70;;;;;;4890696;29;20045;-79
2021/09/25 11:06:41;;;;;;;;;;;19.50;97.70;;;;;;4897257;29;20127;-77
2021/09/25 11:09:12;;;;;;;4.78;2.85;;;19.60;97.50;;;;;;4894022;29;19924;-76
2021/09/25 11:11:48;;;;;;;4.70;2.97;;;19.70;97.30;;;;;;4897473;29;20136;-81
2021/09/25 11:14:25;;;;;;;5.22;3.40;;;19.80;97.20;;;;;;4897370;29;20131;-77
2021/09/25 11:17:06;;;;;;;5.15;3.17;;;19.90;97.00;;;;;;4896413;29;20084;-78
2021/09/25 11:19:43;;;;;;;4.75;3.25;;;19.90;96.90;;;;;;4892622;29;20078;-81
2021/09/25 11:22:24;;;;;;;5.15;3.20;;;20.00;97.10;;;;;;4897318;29;20049;-80
2021/09/25 11:24:55;;;;;;;5.85;3.38;;;20.10;97.10;;;;;;4898211;29;20135;-80
2021/09/25 11:27:27;;;;;;;4.90;3.10;;;20.20;97.10;;;;;;4895263;29;20108;-81
2021/09/25 11:30:08;;;;;;;5.18;3.08;;;20.30;97.00;;;;;;4897624;29;20045;-79
2021/09/25 11:32:38;;;;;;;4.82;3.03;;;20.30;96.80;;;;;;4890590;29;20048;-78
2021/09/25 11:35:09;;;;;;;4.45;2.78;;;20.40;96.70;;;;;;4896922;29;20045;-78
2021/09/25 11:37:46;;;;;;;4.10;2.85;;;20.50;96.60;;;;;;4890667;29;20487;-78
2021/09/25 11:40:14;;;;;;;5.35;2.90;;;20.60;96.40;;;;;;4895872;29;20053;-79
2021/09/25 11:42:43;;;;;;;5.07;3.30;;;20.70;96.10;;;;;;4897861;29;20048;-78
2021/09/25 11:45:13;;;;;;;4.53;2.92;;;20.80;95.90;;;;;;4897373;29;20052;-79
2021/09/25 11:47:43;;;;;;;4.30;2.95;;;20.90;95.80;;;;;;4897373;29;20052;-79
2021/09/25 11:50:21;;;;;;;4.85;2.80;;;21.10;95.60;;;;;;4896878;29;20135;-78
2021/09/25 11:52:51;;;;;;;4.93;2.92;;;21.20;95.30;;;;;;4897188;29;20140;-79
2021/09/25 11:55:20;;;;;;;4.38;2.63;;;21.30;95.30;;;;;;4897413;29;20078;-79
2021/09/25 11:57:55;;;;;;;4.50;2.83;;;21.50;95.30;;;;;;4897379;29;20048;-80
2021/09/25 12:00:27;;;;;;;5.22;3.40;;;21.60;95.20;;;;;;4897062;29;20048;-78
2021/09/25 12:02:56;;;;;;;5.28;3.35;;;21.70;94.80;;;;;;4895664;29;20040;-78
2021/09/25 12:05:37;;;;;;;5.65;3.25;;;21.90;94.70;;;;;;4896934;29;21399;-78
2021/09/25 12:08:08;;;;;;;5.53;2.88;;;22.00;94.30;;;;;;4897345;29;20063;-79
2021/09/25 12:10:37;;;;;;;3.90;2.70;;;22.10;94.00;;;;;;4890143;29;20589;-79
2021/09/25 12:13:09;;;;;;;4.28;2.83;;;22.20;93.80;;;;;;4895781;29;20076;-79
2021/09/25 12:15:40;;;;;;;4.40;2.83;;;22.30;93.70;;;;;;4895053;29;20056;-78
2021/09/25 12:18:14;;;;;;;5.07;2.60;;;22.40;93.50;;;;;;4900828;29;20061;-79
2021/09/25 12:20:43;;;;;;;;;;;22.60;93.20;;;;;;4899142;29;20132;-79
2021/09/25 12:23:10;;;;;;;4.03;2.30;;;22.70;92.60;;;;;;4900194;29;20022;-77
2021/09/25 12:25:41;;;;;;;4.32;2.33;;;22.80;92.40;;;;;;4900388;29;20055;-79
2021/09/25 12:28:44;;;;;;;3.80;2.22;;;22.90;92.00;;;;;;4900086;29;20156;-78
2021/09/25 12:31:16;;;;;;;3.80;2.20;;;23.10;91.60;;;;;;4900239;29;20063;-79
2021/09/25 12:33:51;;;;;;;3.70;2.20;;;23.20;91.30;;;;;;4895145;29;20586;-79
2021/09/25 12:36:19;;;;;;;4.05;2.40;;;23.40;91.10;;;;;;4900551;29;20574;-78
2021/09/25 12:38:48;;;;;;;3.55;2.40;;;23.50;90.30;;;;;;4901161;29;20055;-80
2021/09/25 12:41:20;;;;;;;3.95;2.42;;;23.70;88.90;;;;;;4900979;29;20052;-77
2021/09/25 12:43:51;;;;;;;3.38;2.00;;;23.80;87.70;;;;;;4900329;29;20049;-77
2021/09/25 12:46:25;;;;;;;3.42;2.15;;;24.00;86.30;;;;;;4900286;29;20411;-77
2021/09/25 12:49:03;;;;;;;;;;;24.20;83.90;;;;;;4899346;29;20050;-78
2021/09/25 12:51:32;;;;;;;4.25;2.20;;;24.30;80.00;;;;;;4900172;29;20002;-78
2021/09/25 12:54:00;;;;;;;3.30;2.20;;;24.40;77.80;;;;;;4900205;29;20058;-79
2021/09/25 12:56:30;;;;;;;4.07;2.10;;;24.60;77.90;;;;;;4899178;29;20127;-77
2021/09/25 12:59:01;;;;;;;3.08;1.70;;;24.70;77.20;;;;;;4899651;29;20045;-80